sensor_id;sensor_type;location;lat;lon;timestamp;temperature;humidity
7234;DHT22;3658;47.992;10.158;2023-09-12T00:00:09;24.00;67.20
7234;DHT22;3658;47.992;10.158;2023-09-12T00:02:37;24.00;67.20
7234;DHT22;3658;47.992;10.158;2023-09-12T00:05:04;24.00;67.20
7234;DHT22;3658;47.992;10.158;2023-09-12T00:07:31;24.00;67.20
7234;DHT22;3658;47.992;10.158;2023-09-12T00:09:59;24.00;67.20
7234;DHT22;3658;47.992;10.158;2023-09-12T00:12:27;24.00;67.20
7234;DHT22;3658;47.992;10.158;2023-09-12T00:14:54;24.00;67.10
7234;DHT22;3658;47.992;10.158;2023-09-12T00:17:21;23.90;67.00
7234;DHT22;3658;47.992;10.158;2023-09-12T00:19:48;24.00;67.10
7234;DHT22;3658;47.992;10.158;2023-09-12T00:22:15;24.00;67.10
7234;DHT22;3658;47.992;10.158;2023-09-12T00:24:41;24.00;67.10
7234;DHT22;3658;47.992;10.158;2023-09-12T00:27:09;24.00;67.10
7234;DHT22;3658;47.992;10.158;2023-09-12T00:29:37;23.90;67.00
7234;DHT22;3658;47.992;10.158;2023-09-12T00:32:04;23.90;67.00
7234;DHT22;3658;47.992;10.158;2023-09-12T00:34:31;23.90;67.00
7234;DHT22;3658;47.992;10.158;2023-09-12T00:36:58;23.90;67.00
7234;DHT22;3658;47.992;10.158;2023-09-12T00:39:24;23.90;67.00
7234;DHT22;3658;47.992;10.158;2023-09-12T00:41:51;23.90;67.00
7234;DHT22;3658;47.992;10.158;2023-09-12T00:44:19;23.90;67.20
7234;DHT22;3658;47.992;10.158;2023-09-12T00:46:47;23.90;66.90
7234;DHT22;3658;47.992;10.158;2023-09-12T00:49:16;23.90;66.90
7234;DHT22;3658;47.992;10.158;2023-09-12T00:51:45;23.90;66.90
7234;DHT22;3658;47.992;10.158;2023-09-12T00:54:12;23.90;66.90
7234;DHT22;3658;47.992;10.158;2023-09-12T00:56:39;23.90;66.90
7234;DHT22;3658;47.992;10.158;2023-09-12T00:59:06;23.90;66.90
7234;DHT22;3658;47.992;10.158;2023-09-12T01:01:35;23.90;66.90
7234;DHT22;3658;47.992;10.158;2023-09-12T01:04:02;23.90;66.90
7234;DHT22;3658;47.992;10.158;2023-09-12T01:06:32;23.90;66.90
7234;DHT22;3658;47.992;10.158;2023-09-12T01:09:00;23.90;66.90
7234;DHT22;3658;47.992;10.158;2023-09-12T01:11:28;23.90;66.90
7234;DHT22;3658;47.992;10.158;2023-09-12T01:13:55;23.90;66.90
7234;DHT22;3658;47.992;10.158;2023-09-12T01:16:22;23.90;66.90
7234;DHT22;3658;47.992;10.158;2023-09-12T01:18:50;23.90;66.90
7234;DHT22;3658;47.992;10.158;2023-09-12T01:21:37;23.90;66.90
7234;DHT22;3658;47.992;10.158;2023-09-12T01:24:24;23.90;67.60
7234;DHT22;3658;47.992;10.158;2023-09-12T01:29:34;23.90;66.80
7234;DHT22;3658;47.992;10.158;2023-09-12T01:32:02;23.90;66.80
7234;DHT22;3658;47.992;10.158;2023-09-12T01:34:29;23.90;66.80
7234;DHT22;3658;47.992;10.158;2023-09-12T01:36:56;23.90;66.80
7234;DHT22;3658;47.992;10.158;2023-09-12T01:39:23;23.90;66.80
7234;DHT22;3658;47.992;10.158;2023-09-12T01:41:52;23.90;66.90
7234;DHT22;3658;47.992;10.158;2023-09-12T01:44:20;23.90;66.80
7234;DHT22;3658;47.992;10.158;2023-09-12T01:46:51;23.90;66.80
7234;DHT22;3658;47.992;10.158;2023-09-12T01:49:22;23.90;66.80
7234;DHT22;3658;47.992;10.158;2023-09-12T01:51:51;23.90;66.80
7234;DHT22;3658;47.992;10.158;2023-09-12T01:54:19;23.90;66.80
7234;DHT22;3658;47.992;10.158;2023-09-12T01:56:47;23.90;66.70
7234;DHT22;3658;47.992;10.158;2023-09-12T01:59:14;23.90;66.70
7234;DHT22;3658;47.992;10.158;2023-09-12T02:01:41;23.90;66.80
7234;DHT22;3658;47.992;10.158;2023-09-12T02:04:09;23.90;66.80
7234;DHT22;3658;47.992;10.158;2023-09-12T02:06:36;23.90;66.80
7234;DHT22;3658;47.992;10.158;2023-09-12T02:09:04;23.90;66.70
7234;DHT22;3658;47.992;10.158;2023-09-12T02:11:30;23.90;66.70
7234;DHT22;3658;47.992;10.158;2023-09-12T02:13:57;23.90;66.70
7234;DHT22;3658;47.992;10.158;2023-09-12T02:16:24;23.90;66.70
7234;DHT22;3658;47.992;10.158;2023-09-12T02:18:51;23.90;66.70
7234;DHT22;3658;47.992;10.158;2023-09-12T02:21:19;23.90;66.70
7234;DHT22;3658;47.992;10.158;2023-09-12T02:23:45;23.90;66.80
7234;DHT22;3658;47.992;10.158;2023-09-12T02:26:12;23.90;66.70
7234;DHT22;3658;47.992;10.158;2023-09-12T02:28:39;23.90;66.70
7234;DHT22;3658;47.992;10.158;2023-09-12T02:31:10;23.90;66.70
7234;DHT22;3658;47.992;10.158;2023-09-12T02:33:37;23.90;66.70
7234;DHT22;3658;47.992;10.158;2023-09-12T02:36:04;23.90;66.70
7234;DHT22;3658;47.992;10.158;2023-09-12T02:38:35;23.90;66.70
7234;DHT22;3658;47.992;10.158;2023-09-12T02:41:04;23.90;66.70
7234;DHT22;3658;47.992;10.158;2023-09-12T02:43:31;23.90;66.70
7234;DHT22;3658;47.992;10.158;2023-09-12T02:45:58;23.90;66.70
7234;DHT22;3658;47.992;10.158;2023-09-12T02:48:25;23.90;66.70
7234;DHT22;3658;47.992;10.158;2023-09-12T02:50:51;23.90;66.70
7234;DHT22;3658;47.992;10.158;2023-09-12T02:53:18;23.90;66.70
7234;DHT22;3658;47.992;10.158;2023-09-12T02:55:46;23.90;66.80
7234;DHT22;3658;47.992;10.158;2023-09-12T02:58:13;23.80;66.60
7234;DHT22;3658;47.992;10.158;2023-09-12T03:00:40;23.90;66.70
7234;DHT22;3658;47.992;10.158;2023-09-12T03:03:07;23.80;66.60
7234;DHT22;3658;47.992;10.158;2023-09-12T03:05:34;23.80;66.60
7234;DHT22;3658;47.992;10.158;2023-09-12T03:08:01;23.80;66.60
7234;DHT22;3658;47.992;10.158;2023-09-12T03:10:29;23.80;66.60
7234;DHT22;3658;47.992;10.158;2023-09-12T03:12:57;23.80;66.70
7234;DHT22;3658;47.992;10.158;2023-09-12T03:15:23;23.80;66.60
7234;DHT22;3658;47.992;10.158;2023-09-12T03:17:50;23.80;66.60
7234;DHT22;3658;47.992;10.158;2023-09-12T03:20:17;23.80;66.70
7234;DHT22;3658;47.992;10.158;2023-09-12T03:22:45;23.80;66.60
7234;DHT22;3658;47.992;10.158;2023-09-12T03:25:12;23.80;66.60
7234;DHT22;3658;47.992;10.158;2023-09-12T03:27:39;23.80;66.50
7234;DHT22;3658;47.992;10.158;2023-09-12T03:30:08;23.80;66.60
7234;DHT22;3658;47.992;10.158;2023-09-12T03:32:35;23.80;66.60
7234;DHT22;3658;47.992;10.158;2023-09-12T03:35:02;23.80;66.60
7234;DHT22;3658;47.992;10.158;2023-09-12T03:37:29;23.80;66.60
7234;DHT22;3658;47.992;10.158;2023-09-12T03:39:56;23.80;66.50
7234;DHT22;3658;47.992;10.158;2023-09-12T03:42:23;23.80;66.50
7234;DHT22;3658;47.992;10.158;2023-09-12T03:44:49;23.80;66.50
7234;DHT22;3658;47.992;10.158;2023-09-12T03:47:17;23.80;66.60
7234;DHT22;3658;47.992;10.158;2023-09-12T03:49:44;23.80;66.50
7234;DHT22;3658;47.992;10.158;2023-09-12T03:52:11;23.80;66.60
7234;DHT22;3658;47.992;10.158;2023-09-12T03:54:38;23.80;66.60
7234;DHT22;3658;47.992;10.158;2023-09-12T03:57:04;23.80;67.30
7234;DHT22;3658;47.992;10.158;2023-09-12T03:59:31;23.80;66.50
7234;DHT22;3658;47.992;10.158;2023-09-12T04:01:58;23.80;66.50
7234;DHT22;3658;47.992;10.158;2023-09-12T04:04:26;23.80;66.50
7234;DHT22;3658;47.992;10.158;2023-09-12T04:06:53;23.80;66.60
7234;DHT22;3658;47.992;10.158;2023-09-12T04:09:20;23.80;67.40
7234;DHT22;3658;47.992;10.158;2023-09-12T04:11:47;23.80;66.60
7234;DHT22;3658;47.992;10.158;2023-09-12T04:14:14;23.80;66.50
7234;DHT22;3658;47.992;10.158;2023-09-12T04:16:41;23.80;66.50
7234;DHT22;3658;47.992;10.158;2023-09-12T04:19:08;23.80;66.50
7234;DHT22;3658;47.992;10.158;2023-09-12T04:21:36;23.80;66.50
7234;DHT22;3658;47.992;10.158;2023-09-12T04:24:03;23.80;66.50
7234;DHT22;3658;47.992;10.158;2023-09-12T04:26:30;23.80;66.50
7234;DHT22;3658;47.992;10.158;2023-09-12T04:28:57;23.80;66.50
7234;DHT22;3658;47.992;10.158;2023-09-12T04:31:23;23.80;66.50
7234;DHT22;3658;47.992;10.158;2023-09-12T04:33:50;23.80;66.50
7234;DHT22;3658;47.992;10.158;2023-09-12T04:36:23;23.80;66.50
7234;DHT22;3658;47.992;10.158;2023-09-12T04:38:51;23.80;66.50
7234;DHT22;3658;47.992;10.158;2023-09-12T04:41:18;23.80;66.50
7234;DHT22;3658;47.992;10.158;2023-09-12T04:43:45;23.80;66.50
7234;DHT22;3658;47.992;10.158;2023-09-12T04:46:17;23.80;66.50
7234;DHT22;3658;47.992;10.158;2023-09-12T04:48:44;23.80;66.50
7234;DHT22;3658;47.992;10.158;2023-09-12T04:51:11;23.80;66.50
7234;DHT22;3658;47.992;10.158;2023-09-12T04:53:37;23.80;66.50
7234;DHT22;3658;47.992;10.158;2023-09-12T04:56:07;23.80;66.50
7234;DHT22;3658;47.992;10.158;2023-09-12T04:58:35;23.80;66.50
7234;DHT22;3658;47.992;10.158;2023-09-12T05:01:02;23.80;66.50
7234;DHT22;3658;47.992;10.158;2023-09-12T05:03:29;23.80;66.50
7234;DHT22;3658;47.992;10.158;2023-09-12T05:05:57;23.70;66.50
7234;DHT22;3658;47.992;10.158;2023-09-12T05:08:24;23.80;66.50
7234;DHT22;3658;47.992;10.158;2023-09-12T05:10:51;23.80;66.50
7234;DHT22;3658;47.992;10.158;2023-09-12T05:13:19;23.80;66.50
7234;DHT22;3658;47.992;10.158;2023-09-12T05:15:47;23.90;67.30
7234;DHT22;3658;47.992;10.158;2023-09-12T05:18:13;23.90;66.80
7234;DHT22;3658;47.992;10.158;2023-09-12T05:20:40;23.90;66.60
7234;DHT22;3658;47.992;10.158;2023-09-12T05:23:07;23.90;66.40
7234;DHT22;3658;47.992;10.158;2023-09-12T05:25:34;23.90;66.20
7234;DHT22;3658;47.992;10.158;2023-09-12T05:28:01;23.80;65.80
7234;DHT22;3658;47.992;10.158;2023-09-12T05:30:29;23.80;65.60
7234;DHT22;3658;47.992;10.158;2023-09-12T05:32:56;23.80;65.40
7234;DHT22;3658;47.992;10.158;2023-09-12T05:35:23;23.80;65.30
7234;DHT22;3658;47.992;10.158;2023-09-12T05:37:50;23.80;65.00
7234;DHT22;3658;47.992;10.158;2023-09-12T05:40:19;23.80;64.90
7234;DHT22;3658;47.992;10.158;2023-09-12T05:42:46;23.80;64.70
7234;DHT22;3658;47.992;10.158;2023-09-12T05:45:13;23.80;64.50
7234;DHT22;3658;47.992;10.158;2023-09-12T05:47:41;23.80;64.40
7234;DHT22;3658;47.992;10.158;2023-09-12T05:50:08;23.80;64.10
7234;DHT22;3658;47.992;10.158;2023-09-12T05:52:35;23.80;64.10
7234;DHT22;3658;47.992;10.158;2023-09-12T05:55:02;23.80;64.00
7234;DHT22;3658;47.992;10.158;2023-09-12T05:57:31;23.80;63.90
7234;DHT22;3658;47.992;10.158;2023-09-12T05:59:59;23.80;63.80
7234;DHT22;3658;47.992;10.158;2023-09-12T06:02:27;23.80;64.40
7234;DHT22;3658;47.992;10.158;2023-09-12T06:04:55;23.80;63.30
7234;DHT22;3658;47.992;10.158;2023-09-12T06:07:22;23.80;62.90
7234;DHT22;3658;47.992;10.158;2023-09-12T06:09:49;23.80;63.60
7234;DHT22;3658;47.992;10.158;2023-09-12T06:12:16;23.80;63.50
7234;DHT22;3658;47.992;10.158;2023-09-12T06:14:43;23.80;63.50
7234;DHT22;3658;47.992;10.158;2023-09-12T06:17:10;23.80;63.50
7234;DHT22;3658;47.992;10.158;2023-09-12T06:19:37;23.80;63.60
7234;DHT22;3658;47.992;10.158;2023-09-12T06:22:06;23.80;63.70
7234;DHT22;3658;47.992;10.158;2023-09-12T06:24:33;23.80;63.70
7234;DHT22;3658;47.992;10.158;2023-09-12T06:27:00;23.80;64.50
7234;DHT22;3658;47.992;10.158;2023-09-12T06:29:26;23.80;63.80
7234;DHT22;3658;47.992;10.158;2023-09-12T06:31:53;23.80;63.90
7234;DHT22;3658;47.992;10.158;2023-09-12T06:34:21;23.80;64.00
7234;DHT22;3658;47.992;10.158;2023-09-12T06:36:48;23.80;64.00
7234;DHT22;3658;47.992;10.158;2023-09-12T06:39:16;23.80;64.10
7234;DHT22;3658;47.992;10.158;2023-09-12T06:41:43;23.80;64.10
7234;DHT22;3658;47.992;10.158;2023-09-12T06:44:10;23.80;64.10
7234;DHT22;3658;47.992;10.158;2023-09-12T06:46:37;23.80;64.20
7234;DHT22;3658;47.992;10.158;2023-09-12T06:49:04;23.90;64.30
7234;DHT22;3658;47.992;10.158;2023-09-12T06:51:30;23.80;64.20
7234;DHT22;3658;47.992;10.158;2023-09-12T06:53:57;23.80;64.30
7234;DHT22;3658;47.992;10.158;2023-09-12T06:56:26;23.90;64.40
7234;DHT22;3658;47.992;10.158;2023-09-12T06:58:53;23.80;64.30
7234;DHT22;3658;47.992;10.158;2023-09-12T07:01:21;23.80;64.30
7234;DHT22;3658;47.992;10.158;2023-09-12T07:03:48;23.80;64.40
7234;DHT22;3658;47.992;10.158;2023-09-12T07:06:19;23.90;64.50
7234;DHT22;3658;47.992;10.158;2023-09-12T07:08:46;23.90;64.50
7234;DHT22;3658;47.992;10.158;2023-09-12T07:11:12;23.90;64.50
7234;DHT22;3658;47.992;10.158;2023-09-12T07:13:40;23.90;64.60
7234;DHT22;3658;47.992;10.158;2023-09-12T07:16:07;23.80;64.50
7234;DHT22;3658;47.992;10.158;2023-09-12T07:18:34;23.80;64.50
7234;DHT22;3658;47.992;10.158;2023-09-12T07:21:03;23.80;64.60
7234;DHT22;3658;47.992;10.158;2023-09-12T07:23:30;23.80;64.60
7234;DHT22;3658;47.992;10.158;2023-09-12T07:25:58;23.90;64.70
7234;DHT22;3658;47.992;10.158;2023-09-12T07:28:25;23.80;64.70
7234;DHT22;3658;47.992;10.158;2023-09-12T07:30:53;23.90;64.80
7234;DHT22;3658;47.992;10.158;2023-09-12T07:33:20;23.80;64.70
7234;DHT22;3658;47.992;10.158;2023-09-12T07:35:48;23.90;64.80
7234;DHT22;3658;47.992;10.158;2023-09-12T07:38:15;23.90;64.80
7234;DHT22;3658;47.992;10.158;2023-09-12T07:40:41;23.90;64.80
7234;DHT22;3658;47.992;10.158;2023-09-12T07:43:08;23.90;64.80
7234;DHT22;3658;47.992;10.158;2023-09-12T07:45:36;23.90;64.80
7234;DHT22;3658;47.992;10.158;2023-09-12T07:48:06;23.90;64.90
7234;DHT22;3658;47.992;10.158;2023-09-12T07:50:33;23.90;64.90
7234;DHT22;3658;47.992;10.158;2023-09-12T07:53:00;23.90;64.90
7234;DHT22;3658;47.992;10.158;2023-09-12T07:55:27;23.90;65.00
7234;DHT22;3658;47.992;10.158;2023-09-12T07:57:56;23.80;64.90
7234;DHT22;3658;47.992;10.158;2023-09-12T08:00:23;23.90;65.00
7234;DHT22;3658;47.992;10.158;2023-09-12T08:02:50;23.90;65.00
7234;DHT22;3658;47.992;10.158;2023-09-12T08:05:18;23.90;65.10
7234;DHT22;3658;47.992;10.158;2023-09-12T08:07:45;23.90;65.10
7234;DHT22;3658;47.992;10.158;2023-09-12T08:10:12;23.90;65.10
7234;DHT22;3658;47.992;10.158;2023-09-12T08:12:39;23.90;65.10
7234;DHT22;3658;47.992;10.158;2023-09-12T08:15:08;23.90;65.10
7234;DHT22;3658;47.992;10.158;2023-09-12T08:17:35;23.90;65.10
7234;DHT22;3658;47.992;10.158;2023-09-12T08:20:02;23.90;65.10
7234;DHT22;3658;47.992;10.158;2023-09-12T08:22:30;23.90;65.10
7234;DHT22;3658;47.992;10.158;2023-09-12T08:24:57;23.90;65.10
7234;DHT22;3658;47.992;10.158;2023-09-12T08:27:24;23.90;65.90
7234;DHT22;3658;47.992;10.158;2023-09-12T08:29:51;23.90;65.20
7234;DHT22;3658;47.992;10.158;2023-09-12T08:32:17;23.90;65.10
7234;DHT22;3658;47.992;10.158;2023-09-12T08:34:44;23.90;65.20
7234;DHT22;3658;47.992;10.158;2023-09-12T08:37:11;23.90;65.20
7234;DHT22;3658;47.992;10.158;2023-09-12T08:39:43;23.90;65.20
7234;DHT22;3658;47.992;10.158;2023-09-12T08:42:12;23.90;65.30
7234;DHT22;3658;47.992;10.158;2023-09-12T08:44:40;23.90;65.30
7234;DHT22;3658;47.992;10.158;2023-09-12T08:47:07;23.90;65.30
7234;DHT22;3658;47.992;10.158;2023-09-12T08:49:35;23.90;65.30
7234;DHT22;3658;47.992;10.158;2023-09-12T08:52:03;23.90;65.30
7234;DHT22;3658;47.992;10.158;2023-09-12T08:54:30;23.90;65.40
7234;DHT22;3658;47.992;10.158;2023-09-12T08:56:58;23.90;65.40
7234;DHT22;3658;47.992;10.158;2023-09-12T08:59:27;23.90;65.30
7234;DHT22;3658;47.992;10.158;2023-09-12T09:01:54;23.90;65.30
7234;DHT22;3658;47.992;10.158;2023-09-12T09:04:23;23.90;65.30
7234;DHT22;3658;47.992;10.158;2023-09-12T09:06:52;23.90;65.30
7234;DHT22;3658;47.992;10.158;2023-09-12T09:09:20;23.80;65.30
7234;DHT22;3658;47.992;10.158;2023-09-12T09:11:47;23.90;65.50
7234;DHT22;3658;47.992;10.158;2023-09-12T09:14:15;23.90;65.50
7234;DHT22;3658;47.992;10.158;2023-09-12T09:16:44;23.90;65.50
7234;DHT22;3658;47.992;10.158;2023-09-12T09:19:12;23.90;65.50
7234;DHT22;3658;47.992;10.158;2023-09-12T09:21:39;23.90;65.50
7234;DHT22;3658;47.992;10.158;2023-09-12T09:24:08;23.90;65.50
7234;DHT22;3658;47.992;10.158;2023-09-12T09:26:45;23.90;65.60
7234;DHT22;3658;47.992;10.158;2023-09-12T09:29:16;23.90;65.60
7234;DHT22;3658;47.992;10.158;2023-09-12T09:31:44;23.90;66.30
7234;DHT22;3658;47.992;10.158;2023-09-12T09:34:11;23.90;65.60
7234;DHT22;3658;47.992;10.158;2023-09-12T09:36:41;23.90;65.60
7234;DHT22;3658;47.992;10.158;2023-09-12T09:39:09;23.90;65.50
7234;DHT22;3658;47.992;10.158;2023-09-12T09:41:36;23.90;65.50
7234;DHT22;3658;47.992;10.158;2023-09-12T09:44:04;23.90;65.50
7234;DHT22;3658;47.992;10.158;2023-09-12T09:46:33;23.90;65.60
7234;DHT22;3658;47.992;10.158;2023-09-12T09:48:59;23.90;65.50
7234;DHT22;3658;47.992;10.158;2023-09-12T09:51:41;23.90;65.60
7234;DHT22;3658;47.992;10.158;2023-09-12T09:54:08;23.90;65.60
7234;DHT22;3658;47.992;10.158;2023-09-12T09:56:45;23.90;65.60
7234;DHT22;3658;47.992;10.158;2023-09-12T09:59:14;23.90;65.60
7234;DHT22;3658;47.992;10.158;2023-09-12T10:01:43;23.90;65.70
7234;DHT22;3658;47.992;10.158;2023-09-12T10:04:11;23.90;65.60
7234;DHT22;3658;47.992;10.158;2023-09-12T10:06:38;23.90;65.60
7234;DHT22;3658;47.992;10.158;2023-09-12T10:09:07;23.90;65.60
7234;DHT22;3658;47.992;10.158;2023-09-12T10:11:37;23.90;65.60
7234;DHT22;3658;47.992;10.158;2023-09-12T10:14:05;23.90;65.70
7234;DHT22;3658;47.992;10.158;2023-09-12T10:16:33;23.90;65.60
7234;DHT22;3658;47.992;10.158;2023-09-12T10:19:10;23.90;65.70
7234;DHT22;3658;47.992;10.158;2023-09-12T10:21:49;23.90;65.60
7234;DHT22;3658;47.992;10.158;2023-09-12T10:24:18;23.90;65.60
7234;DHT22;3658;47.992;10.158;2023-09-12T10:26:47;23.90;65.60
7234;DHT22;3658;47.992;10.158;2023-09-12T10:29:14;23.90;65.70
7234;DHT22;3658;47.992;10.158;2023-09-12T10:31:42;23.90;65.70
7234;DHT22;3658;47.992;10.158;2023-09-12T10:34:11;23.90;65.70
7234;DHT22;3658;47.992;10.158;2023-09-12T10:36:39;23.90;65.70
7234;DHT22;3658;47.992;10.158;2023-09-12T10:39:07;23.90;65.70
7234;DHT22;3658;47.992;10.158;2023-09-12T10:41:36;23.90;65.70
7234;DHT22;3658;47.992;10.158;2023-09-12T10:44:09;23.90;65.80
7234;DHT22;3658;47.992;10.158;2023-09-12T10:46:37;23.90;65.80
7234;DHT22;3658;47.992;10.158;2023-09-12T10:49:06;23.90;65.80
7234;DHT22;3658;47.992;10.158;2023-09-12T10:51:37;24.00;65.80
7234;DHT22;3658;47.992;10.158;2023-09-12T10:54:05;23.90;65.80
7234;DHT22;3658;47.992;10.158;2023-09-12T10:56:33;23.90;65.80
7234;DHT22;3658;47.992;10.158;2023-09-12T10:59:13;23.90;65.70
7234;DHT22;3658;47.992;10.158;2023-09-12T11:01:41;23.90;65.70
7234;DHT22;3658;47.992;10.158;2023-09-12T11:04:30;23.90;65.70
7234;DHT22;3658;47.992;10.158;2023-09-12T11:07:00;23.90;65.80
7234;DHT22;3658;47.992;10.158;2023-09-12T11:09:27;23.90;65.80
7234;DHT22;3658;47.992;10.158;2023-09-12T11:11:59;23.90;65.80
7234;DHT22;3658;47.992;10.158;2023-09-12T11:14:28;23.90;65.80
7234;DHT22;3658;47.992;10.158;2023-09-12T11:17:23;23.90;65.80
7234;DHT22;3658;47.992;10.158;2023-09-12T11:19:51;23.90;65.80
7234;DHT22;3658;47.992;10.158;2023-09-12T11:22:28;23.90;65.80
7234;DHT22;3658;47.992;10.158;2023-09-12T11:24:56;23.90;65.80
7234;DHT22;3658;47.992;10.158;2023-09-12T11:27:30;23.90;65.80
7234;DHT22;3658;47.992;10.158;2023-09-12T11:30:04;23.90;65.80
7234;DHT22;3658;47.992;10.158;2023-09-12T11:32:32;23.90;65.80
7234;DHT22;3658;47.992;10.158;2023-09-12T11:35:00;24.00;65.90
7234;DHT22;3658;47.992;10.158;2023-09-12T11:37:32;23.90;65.80
7234;DHT22;3658;47.992;10.158;2023-09-12T11:40:01;23.90;65.80
7234;DHT22;3658;47.992;10.158;2023-09-12T11:42:28;23.90;65.80
7234;DHT22;3658;47.992;10.158;2023-09-12T11:44:56;23.90;65.80
7234;DHT22;3658;47.992;10.158;2023-09-12T11:47:23;24.00;65.90
7234;DHT22;3658;47.992;10.158;2023-09-12T11:49:50;24.00;66.70
7234;DHT22;3658;47.992;10.158;2023-09-12T11:52:17;23.90;65.90
7234;DHT22;3658;47.992;10.158;2023-09-12T11:54:46;23.90;65.90
7234;DHT22;3658;47.992;10.158;2023-09-12T11:57:14;23.90;65.90
7234;DHT22;3658;47.992;10.158;2023-09-12T11:59:43;23.90;65.90
7234;DHT22;3658;47.992;10.158;2023-09-12T12:02:11;23.90;65.90
7234;DHT22;3658;47.992;10.158;2023-09-12T12:04:39;24.00;66.00
7234;DHT22;3658;47.992;10.158;2023-09-12T12:07:06;23.90;65.90
7234;DHT22;3658;47.992;10.158;2023-09-12T12:09:33;23.90;65.90
7234;DHT22;3658;47.992;10.158;2023-09-12T12:12:09;23.90;65.90
7234;DHT22;3658;47.992;10.158;2023-09-12T12:14:36;24.00;66.00
7234;DHT22;3658;47.992;10.158;2023-09-12T12:17:07;24.00;66.00
7234;DHT22;3658;47.992;10.158;2023-09-12T12:19:35;23.90;65.90
7234;DHT22;3658;47.992;10.158;2023-09-12T12:22:02;23.90;65.90
7234;DHT22;3658;47.992;10.158;2023-09-12T12:24:37;24.00;66.00
7234;DHT22;3658;47.992;10.158;2023-09-12T12:27:05;24.00;66.10
7234;DHT22;3658;47.992;10.158;2023-09-12T12:29:33;23.90;66.00
7234;DHT22;3658;47.992;10.158;2023-09-12T12:32:02;24.00;66.00
7234;DHT22;3658;47.992;10.158;2023-09-12T12:34:30;23.90;65.90
7234;DHT22;3658;47.992;10.158;2023-09-12T12:36:57;23.90;66.00
7234;DHT22;3658;47.992;10.158;2023-09-12T12:39:24;23.90;65.90
7234;DHT22;3658;47.992;10.158;2023-09-12T12:41:52;24.00;66.10
7234;DHT22;3658;47.992;10.158;2023-09-12T12:44:21;24.00;66.10
7234;DHT22;3658;47.992;10.158;2023-09-12T12:46:48;23.90;65.90
7234;DHT22;3658;47.992;10.158;2023-09-12T12:49:15;24.00;66.00
7234;DHT22;3658;47.992;10.158;2023-09-12T12:51:42;24.00;66.00
7234;DHT22;3658;47.992;10.158;2023-09-12T12:54:09;24.00;66.10
7234;DHT22;3658;47.992;10.158;2023-09-12T12:56:36;24.00;66.10
7234;DHT22;3658;47.992;10.158;2023-09-12T12:59:05;24.00;66.10
7234;DHT22;3658;47.992;10.158;2023-09-12T13:01:36;24.00;66.00
7234;DHT22;3658;47.992;10.158;2023-09-12T13:04:05;24.00;66.00
7234;DHT22;3658;47.992;10.158;2023-09-12T13:06:33;24.00;66.10
7234;DHT22;3658;47.992;10.158;2023-09-12T13:09:02;24.00;66.10
7234;DHT22;3658;47.992;10.158;2023-09-12T13:11:31;24.00;66.10
7234;DHT22;3658;47.992;10.158;2023-09-12T13:13:58;24.00;66.10
7234;DHT22;3658;47.992;10.158;2023-09-12T13:16:25;24.00;66.10
7234;DHT22;3658;47.992;10.158;2023-09-12T13:18:53;24.00;66.10
7234;DHT22;3658;47.992;10.158;2023-09-12T13:21:20;24.00;66.10
7234;DHT22;3658;47.992;10.158;2023-09-12T13:23:47;24.00;66.10
7234;DHT22;3658;47.992;10.158;2023-09-12T13:26:14;24.00;66.10
7234;DHT22;3658;47.992;10.158;2023-09-12T13:28:41;24.00;66.10
7234;DHT22;3658;47.992;10.158;2023-09-12T13:31:07;24.00;66.20
7234;DHT22;3658;47.992;10.158;2023-09-12T13:33:34;24.00;66.10
7234;DHT22;3658;47.992;10.158;2023-09-12T13:36:03;24.00;66.10
7234;DHT22;3658;47.992;10.158;2023-09-12T13:38:29;24.00;66.10
7234;DHT22;3658;47.992;10.158;2023-09-12T13:40:56;24.00;66.10
7234;DHT22;3658;47.992;10.158;2023-09-12T13:43:23;24.00;66.10
7234;DHT22;3658;47.992;10.158;2023-09-12T13:45:50;24.00;66.10
7234;DHT22;3658;47.992;10.158;2023-09-12T13:48:17;24.00;66.20
7234;DHT22;3658;47.992;10.158;2023-09-12T13:50:43;24.00;66.20
7234;DHT22;3658;47.992;10.158;2023-09-12T13:53:11;24.00;66.20
7234;DHT22;3658;47.992;10.158;2023-09-12T13:55:38;24.00;66.20
7234;DHT22;3658;47.992;10.158;2023-09-12T13:58:06;24.00;66.20
7234;DHT22;3658;47.992;10.158;2023-09-12T14:00:33;24.00;66.20
7234;DHT22;3658;47.992;10.158;2023-09-12T14:03:01;24.00;66.10
7234;DHT22;3658;47.992;10.158;2023-09-12T14:05:28;24.00;66.10
7234;DHT22;3658;47.992;10.158;2023-09-12T14:07:55;24.00;66.10
7234;DHT22;3658;47.992;10.158;2023-09-12T14:10:23;24.00;66.10
7234;DHT22;3658;47.992;10.158;2023-09-12T14:12:50;24.00;66.10
7234;DHT22;3658;47.992;10.158;2023-09-12T14:15:16;24.00;66.10
7234;DHT22;3658;47.992;10.158;2023-09-12T14:17:43;24.00;66.10
7234;DHT22;3658;47.992;10.158;2023-09-12T14:20:10;24.00;66.20
7234;DHT22;3658;47.992;10.158;2023-09-12T14:22:41;24.00;66.20
7234;DHT22;3658;47.992;10.158;2023-09-12T14:25:08;24.00;66.20
7234;DHT22;3658;47.992;10.158;2023-09-12T14:27:41;24.00;66.20
7234;DHT22;3658;47.992;10.158;2023-09-12T14:30:09;24.00;66.20
7234;DHT22;3658;47.992;10.158;2023-09-12T14:32:38;24.00;66.20
7234;DHT22;3658;47.992;10.158;2023-09-12T14:35:05;24.00;66.20
7234;DHT22;3658;47.992;10.158;2023-09-12T14:37:32;24.00;66.20
7234;DHT22;3658;47.992;10.158;2023-09-12T14:40:02;24.00;66.20
7234;DHT22;3658;47.992;10.158;2023-09-12T14:42:30;24.00;66.20
7234;DHT22;3658;47.992;10.158;2023-09-12T14:44:59;24.00;66.20
7234;DHT22;3658;47.992;10.158;2023-09-12T14:47:25;24.00;66.20
7234;DHT22;3658;47.992;10.158;2023-09-12T14:49:56;24.00;66.20
7234;DHT22;3658;47.992;10.158;2023-09-12T14:52:23;24.00;66.20
7234;DHT22;3658;47.992;10.158;2023-09-12T14:54:52;24.00;66.30
7234;DHT22;3658;47.992;10.158;2023-09-12T14:57:19;24.00;66.50
7234;DHT22;3658;47.992;10.158;2023-09-12T14:59:49;24.10;67.30
7234;DHT22;3658;47.992;10.158;2023-09-12T15:02:17;24.10;64.70
7234;DHT22;3658;47.992;10.158;2023-09-12T15:04:44;24.10;62.70
7234;DHT22;3658;47.992;10.158;2023-09-12T15:07:11;24.10;62.10
7234;DHT22;3658;47.992;10.158;2023-09-12T15:09:38;24.10;60.60
7234;DHT22;3658;47.992;10.158;2023-09-12T15:12:06;24.10;59.30
7234;DHT22;3658;47.992;10.158;2023-09-12T15:14:34;24.10;58.20
7234;DHT22;3658;47.992;10.158;2023-09-12T15:17:01;24.10;57.30
7234;DHT22;3658;47.992;10.158;2023-09-12T15:19:30;24.10;57.30
7234;DHT22;3658;47.992;10.158;2023-09-12T15:21:56;24.10;57.30
7234;DHT22;3658;47.992;10.158;2023-09-12T15:24:23;24.20;58.40
7234;DHT22;3658;47.992;10.158;2023-09-12T15:26:52;24.20;59.10
7234;DHT22;3658;47.992;10.158;2023-09-12T15:29:18;24.20;59.60
7234;DHT22;3658;47.992;10.158;2023-09-12T15:31:45;24.30;59.60
7234;DHT22;3658;47.992;10.158;2023-09-12T15:34:12;24.30;59.80
7234;DHT22;3658;47.992;10.158;2023-09-12T15:36:43;24.20;60.00
7234;DHT22;3658;47.992;10.158;2023-09-12T15:39:10;24.10;59.40
7234;DHT22;3658;47.992;10.158;2023-09-12T15:41:37;24.10;58.60
7234;DHT22;3658;47.992;10.158;2023-09-12T15:44:04;24.10;58.70
7234;DHT22;3658;47.992;10.158;2023-09-12T15:46:31;24.00;59.60
7234;DHT22;3658;47.992;10.158;2023-09-12T15:48:58;24.00;60.20
7234;DHT22;3658;47.992;10.158;2023-09-12T15:51:25;24.00;60.60